Time;durP1;ratioP1;P1;durP2;ratioP2;P2;SDS_P1;SDS_P2;PMS_P1;PMS_P2;Temp;Humidity;BMP_temperature;BMP_pressure;BME280_temperature;BME280_humidity;BME280_pressure;Samples;Min_cycle;Max_cycle;Signal;HPM_P1;HPM_P2
2021/11/05 00:00:35;;;;;;;7.55;4.88;;;;;;;;;;5007721;28;20025;-90
2021/11/05 00:03:01;;;;;;;8.05;4.90;;;;;;;;;;5004372;28;20030;-82
2021/11/05 00:05:31;;;;;;;8.07;4.95;;;;;;;;;;5004436;28;20065;-81
2021/11/05 00:07:57;;;;;;;6.32;4.82;;;;;;;;;;5007730;28;20161;-81
2021/11/05 00:10:23;;;;;;;7.30;4.72;;;;;;;;;;5007110;28;20034;-82
2021/11/05 00:12:49;;;;;;;7.63;5.15;;;;;;;;;;5009865;28;20113;-81
2021/11/05 00:15:15;;;;;;;7.93;5.10;;;;;;;;;;5014802;28;20128;-87
2021/11/05 00:17:41;;;;;;;7.28;4.78;;;;;;;;;;5019053;28;20032;-81
2021/11/05 00:20:07;;;;;;;9.10;5.05;;;;;;;;;;5004055;28;20030;-87
2021/11/05 00:22:34;;;;;;;8.18;5.30;;;;;;;;;;5004990;28;20030;-82
2021/11/05 00:25:00;;;;;;;7.60;4.97;;;;;;;;;;5012817;28;20026;-81
2021/11/05 00:27:25;;;;;;;8.38;4.72;;;;;;;;;;5009010;28;20500;-81
2021/11/05 00:29:50;;;;;;;8.38;5.03;;;;;;;;;;5008145;28;20131;-91
2021/11/05 00:32:16;;;;;;;7.15;4.80;;;;;;;;;;5010017;28;20021;-92
2021/11/05 00:34:41;;;;;;;7.70;5.05;;;;;;;;;;5014196;28;20033;-92
2021/11/05 00:37:06;;;;;;;6.85;4.90;;;;;;;;;;5012247;28;20076;-81
2021/11/05 00:39:32;;;;;;;6.82;4.90;;;;;;;;;;5006578;28;20089;-82
2021/11/05 00:41:58;;;;;;;7.18;4.93;;;;;;;;;;5011962;28;20029;-82
2021/11/05 00:44:24;;;;;;;6.80;4.78;;;;;;;;;;5008645;28;20033;-92
2021/11/05 00:46:50;;;;;;;6.93;4.72;;;;;;;;;;5003348;28;20180;-91
2021/11/05 00:49:16;;;;;;;9.02;4.90;;;;;;;;;;5010823;28;20029;-87
2021/11/05 00:51:41;;;;;;;6.65;4.57;;;;;;;;;;5012691;28;20033;-81
2021/11/05 00:54:08;;;;;;;7.97;4.82;;;;;;;;;;5011054;28;20069;-87
2021/11/05 00:56:33;;;;;;;7.13;4.55;;;;;;;;;;5006975;28;20030;-91
2021/11/05 00:58:59;;;;;;;6.40;4.32;;;;;;;;;;5011355;28;20026;-81
2021/11/05 01:01:24;;;;;;;6.35;4.72;;;;;;;;;;5018352;28;20029;-87
2021/11/05 01:03:49;;;;;;;6.35;4.30;;;;;;;;;;5016014;28;20041;-87
2021/11/05 01:06:17;;;;;;;8.80;4.80;;;;;;;;;;5003439;28;20022;-92
2021/11/05 01:08:43;;;;;;;6.93;4.53;;;;;;;;;;5005393;28;20113;-82
2021/11/05 01:11:09;;;;;;;7.28;4.35;;;;;;;;;;5013325;28;20554;-81
2021/11/05 01:13:34;;;;;;;6.75;4.40;;;;;;;;;;5014569;28;20046;-87
2021/11/05 01:16:00;;;;;;;6.95;4.53;;;;;;;;;;5017825;28;20084;-90
2021/11/05 01:18:25;;;;;;;6.43;4.35;;;;;;;;;;5016120;28;20029;-87
2021/11/05 01:20:50;;;;;;;6.82;4.20;;;;;;;;;;5014950;28;20302;-80
2021/11/05 01:23:17;;;;;;;6.38;4.30;;;;;;;;;;5004107;28;20545;-87
2021/11/05 01:25:42;;;;;;;6.97;4.35;;;;;;;;;;5017297;28;20603;-91
2021/11/05 01:28:08;;;;;;;5.65;3.92;;;;;;;;;;5010803;28;20105;-90
2021/11/05 01:30:34;;;;;;;5.35;3.53;;;;;;;;;;5012725;28;20049;-91
2021/11/05 01:33:06;;;;;;;6.63;4.35;;;;;;;;;;5020022;28;20024;-87
2021/11/05 01:35:32;;;;;;;6.78;4.20;;;;;;;;;;5013485;28;20053;-87
2021/11/05 01:37:58;;;;;;;6.45;4.15;;;;;;;;;;5015268;28;20084;-90
2021/11/05 01:40:23;;;;;;;6.47;3.80;;;;;;;;;;5011975;28;20022;-90
2021/11/05 01:42:48;;;;;;;5.20;3.58;;;;;;;;;;5009836;28;20028;-90
2021/11/05 01:45:14;;;;;;;5.40;3.80;;;;;;;;;;5015716;28;20056;-80
2021/11/05 01:47:40;;;;;;;8.40;3.47;;;;;;;;;;5010123;28;20120;-80
2021/11/05 01:50:09;;;;;;;5.72;3.75;;;;;;;;;;5004895;28;20421;-81
2021/11/05 01:52:37;;;;;;;6.55;3.50;;;;;;;;;;5007238;28;20112;-82
2021/11/05 01:55:03;;;;;;;5.93;3.38;;;;;;;;;;5012787;28;20034;-90
2021/11/05 01:57:28;;;;;;;6.00;3.30;;;;;;;;;;5011241;28;20041;-90
2021/11/05 01:59:54;;;;;;;4.95;3.22;;;;;;;;;;5015017;28;20120;-81
2021/11/05 02:02:20;;;;;;;6.38;3.15;;;;;;;;;;5012171;28;20510;-81
2021/11/05 02:04:46;;;;;;;5.93;3.25;;;;;;;;;;5005506;28;20040;-81
2021/11/05 02:07:13;;;;;;;4.90;3.00;;;;;;;;;;5011375;28;20038;-81
2021/11/05 02:09:39;;;;;;;4.78;2.55;;;;;;;;;;5012239;28;20108;-81
2021/11/05 02:12:06;;;;;;;6.65;2.70;;;;;;;;;;5016881;28;20501;-80
2021/11/05 02:14:31;;;;;;;6.95;2.45;;;;;;;;;;5016300;28;20137;-80
2021/11/05 02:17:00;;;;;;;4.55;2.50;;;;;;;;;;5016805;28;20519;-80
2021/11/05 02:19:28;;;;;;;4.35;2.40;;;;;;;;;;5010220;28;20034;-80
2021/11/05 02:21:54;;;;;;;5.15;2.13;;;;;;;;;;5009917;28;20025;-85
2021/11/05 02:24:22;;;;;;;3.70;2.10;;;;;;;;;;5007956;28;20030;-90
2021/11/05 02:26:49;;;;;;;4.43;2.10;;;;;;;;;;5011823;28;20041;-91
2021/11/05 02:29:15;;;;;;;4.63;1.98;;;;;;;;;;5013056;28;20034;-91
2021/11/05 02:31:41;;;;;;;5.30;1.95;;;;;;;;;;5013316;28;20033;-81
2021/11/05 02:34:07;;;;;;;3.83;1.88;;;;;;;;;;5011051;28;20041;-80
2021/11/05 02:36:33;;;;;;;6.85;2.30;;;;;;;;;;5015850;28;20061;-90
2021/11/05 02:38:59;;;;;;;3.42;1.80;;;;;;;;;;5019028;28;20030;-80
2021/11/05 02:41:24;;;;;;;4.70;1.98;;;;;;;;;;5012103;28;20037;-80
2021/11/05 02:43:51;;;;;;;3.20;1.90;;;;;;;;;;5014383;28;20125;-80
2021/11/05 02:46:17;;;;;;;3.75;2.00;;;;;;;;;;4999731;28;20030;-87
2021/11/05 02:48:42;;;;;;;3.70;1.95;;;;;;;;;;5011883;28;20026;-82
2021/11/05 02:51:11;;;;;;;3.60;1.77;;;;;;;;;;5004842;28;20107;-87
2021/11/05 02:53:37;;;;;;;5.70;1.88;;;;;;;;;;5001761;28;20037;-87
2021/11/05 02:56:04;;;;;;;6.35;2.10;;;;;;;;;;5015348;28;20056;-81
2021/11/05 02:58:30;;;;;;;3.90;2.05;;;;;;;;;;5000617;28;20076;-80
2021/11/05 03:00:56;;;;;;;3.80;1.80;;;;;;;;;;5011348;28;20497;-80
2021/11/05 03:03:22;;;;;;;3.10;1.70;;;;;;;;;;5008644;28;20390;-92
2021/11/05 03:05:47;;;;;;;5.95;2.05;;;;;;;;;;5008395;28;20026;-81
2021/11/05 03:08:13;;;;;;;4.05;2.10;;;;;;;;;;5010057;28;20113;-91
2021/11/05 03:10:38;;;;;;;6.15;2.00;;;;;;;;;;5008601;28;21326;-83
2021/11/05 03:13:04;;;;;;;3.42;1.85;;;;;;;;;;5005824;28;20109;-91
2021/11/05 03:15:30;;;;;;;3.90;2.03;;;;;;;;;;5016032;28;20388;-86
2021/11/05 03:17:58;;;;;;;3.05;1.77;;;;;;;;;;5004561;28;20030;-87
2021/11/05 03:20:24;;;;;;;5.78;2.10;;;;;;;;;;5001604;28;20042;-86
2021/11/05 03:22:50;;;;;;;4.32;2.00;;;;;;;;;;5013419;28;20397;-80
2021/11/05 03:25:15;;;;;;;4.10;2.10;;;;;;;;;;5012567;28;20469;-80
2021/11/05 03:27:41;;;;;;;3.13;1.80;;;;;;;;;;5000780;28;20037;-91
2021/11/05 03:30:09;;;;;;;4.25;2.10;;;;;;;;;;5018322;28;20032;-80
2021/11/05 03:32:36;;;;;;;3.03;1.90;;;;;;;;;;5011912;28;20030;-86
2021/11/05 03:35:03;;;;;;;2.80;1.90;;;;;;;;;;5006552;28;20030;-81
2021/11/05 03:37:29;;;;;;;4.07;2.15;;;;;;;;;;5008609;28;20052;-80
2021/11/05 03:39:54;;;;;;;5.80;2.33;;;;;;;;;;5005577;28;20034;-86
2021/11/05 03:42:20;;;;;;;3.80;2.20;;;;;;;;;;5011952;28;20108;-86
2021/11/05 03:44:45;;;;;;;5.32;2.80;;;;;;;;;;5011125;28;20034;-84
2021/11/05 03:47:10;;;;;;;4.85;2.42;;;;;;;;;;5001746;28;20026;-80
2021/11/05 03:49:36;;;;;;;6.30;2.28;;;;;;;;;;4997518;28;20038;-80
2021/11/05 03:52:02;;;;;;;3.90;2.00;;;;;;;;;;5002275;28;20034;-81
2021/11/05 03:54:27;;;;;;;3.92;2.17;;;;;;;;;;5012049;28;20034;-80
2021/11/05 03:56:53;;;;;;;4.00;2.00;;;;;;;;;;5025309;28;20058;-80
2021/11/05 03:59:18;;;;;;;4.78;2.45;;;;;;;;;;5015014;28;20021;-92
2021/11/05 04:01:43;;;;;;;5.10;2.20;;;;;;;;;;5006561;28;20030;-91
2021/11/05 04:04:10;;;;;;;5.07;2.08;;;;;;;;;;5017053;28;20032;-85
2021/11/05 04:06:36;;;;;;;5.72;2.58;;;;;;;;;;5012359;28;20022;-92
2021/11/05 04:09:01;;;;;;;5.32;2.38;;;;;;;;;;5004635;28;20031;-79
2021/11/05 04:11:27;;;;;;;4.30;2.70;;;;;;;;;;5006731;28;20029;-86
2021/11/05 04:13:52;;;;;;;4.30;2.60;;;;;;;;;;5006915;28;20887;-86
2021/11/05 04:16:18;;;;;;;3.67;2.40;;;;;;;;;;5012204;28;20366;-84
2021/11/05 04:18:43;;;;;;;4.60;2.67;;;;;;;;;;5015473;28;20056;-91
2021/11/05 04:21:09;;;;;;;4.45;2.72;;;;;;;;;;5012587;28;20021;-92
2021/11/05 04:23:35;;;;;;;4.22;2.55;;;;;;;;;;5005776;28;20030;-80
2021/11/05 04:26:01;;;;;;;5.15;3.10;;;;;;;;;;4998351;28;20037;-80
2021/11/05 04:28:27;;;;;;;4.85;2.78;;;;;;;;;;5005943;28;20112;-86
2021/11/05 04:30:52;;;;;;;5.22;2.95;;;;;;;;;;5010097;28;20030;-92
2021/11/05 04:33:17;;;;;;;5.20;2.70;;;;;;;;;;4999711;28;20065;-81
2021/11/05 04:35:44;;;;;;;4.05;2.42;;;;;;;;;;5007189;28;20025;-81
2021/11/05 04:38:10;;;;;;;4.63;2.80;;;;;;;;;;4998181;28;20084;-80
2021/11/05 04:40:35;;;;;;;7.43;2.83;;;;;;;;;;5004003;28;20030;-80
2021/11/05 04:43:01;;;;;;;3.95;2.40;;;;;;;;;;5018339;28;20022;-80
2021/11/05 04:45:26;;;;;;;4.45;2.92;;;;;;;;;;5006868;28;20057;-87
2021/11/05 04:47:51;;;;;;;6.03;3.40;;;;;;;;;;5020339;28;20030;-91
2021/11/05 04:50:18;;;;;;;4.93;3.17;;;;;;;;;;5004585;28;20054;-80
2021/11/05 04:52:47;;;;;;;4.80;3.40;;;;;;;;;;5018707;28;20703;-84
2021/11/05 04:55:14;;;;;;;4.68;3.13;;;;;;;;;;5009163;28;20026;-92
2021/11/05 04:57:40;;;;;;;5.43;2.92;;;;;;;;;;5015535;28;20065;-79
2021/11/05 05:00:07;;;;;;;6.35;3.22;;;;;;;;;;5015249;28;20058;-85
2021/11/05 05:02:32;;;;;;;4.35;2.90;;;;;;;;;;5015453;28;20064;-80
2021/11/05 05:04:57;;;;;;;5.15;3.13;;;;;;;;;;5016962;28;20068;-85
2021/11/05 05:07:23;;;;;;;4.45;2.70;;;;;;;;;;5021052;28;20517;-86
2021/11/05 05:09:48;;;;;;;4.05;2.45;;;;;;;;;;5018786;28;20421;-81
2021/11/05 05:12:13;;;;;;;6.05;2.60;;;;;;;;;;5012998;28;20037;-91
2021/11/05 05:14:39;;;;;;;5.10;2.30;;;;;;;;;;5016884;28;20049;-80
2021/11/05 05:17:05;;;;;;;4.53;2.50;;;;;;;;;;5016914;28;20108;-92
2021/11/05 05:19:31;;;;;;;4.68;2.50;;;;;;;;;;5003127;28;20026;-81
2021/11/05 05:21:56;;;;;;;3.88;2.40;;;;;;;;;;5011020;28;20037;-80
2021/11/05 05:24:21;;;;;;;3.50;2.17;;;;;;;;;;5011145;28;20036;-92
2021/11/05 05:26:47;;;;;;;4.22;2.60;;;;;;;;;;5008723;28;20034;-81
2021/11/05 05:29:13;;;;;;;6.00;2.53;;;;;;;;;;5016870;28;20032;-91
2021/11/05 05:31:38;;;;;;;3.67;2.35;;;;;;;;;;5012485;28;20025;-80
2021/11/05 05:34:04;;;;;;;4.22;2.53;;;;;;;;;;5013975;28;20080;-85
2021/11/05 05:36:29;;;;;;;5.63;2.30;;;;;;;;;;5015381;28;20441;-80
2021/11/05 05:38:55;;;;;;;4.30;2.50;;;;;;;;;;5006604;28;20029;-90
2021/11/05 05:41:20;;;;;;;4.53;2.85;;;;;;;;;;5013859;28;20049;-79
2021/11/05 05:43:45;;;;;;;4.28;2.60;;;;;;;;;;5013831;28;20030;-80
2021/11/05 05:46:11;;;;;;;4.80;2.47;;;;;;;;;;5015267;28;20072;-92
2021/11/05 05:48:36;;;;;;;4.07;2.50;;;;;;;;;;5019604;28;20046;-92
2021/11/05 05:51:02;;;;;;;4.90;2.58;;;;;;;;;;5008978;28;20026;-90
2021/11/05 05:53:28;;;;;;;5.88;2.80;;;;;;;;;;5013978;28;20029;-91
2021/11/05 05:55:53;;;;;;;4.30;2.83;;;;;;;;;;5016689;28;20025;-85
2021/11/05 05:58:18;;;;;;;5.15;2.72;;;;;;;;;;5007456;28;20018;-92
2021/11/05 06:00:44;;;;;;;5.00;2.90;;;;;;;;;;5010756;28;20061;-81
2021/11/05 06:03:10;;;;;;;3.60;2.30;;;;;;;;;;5019720;28;20029;-85
2021/11/05 06:05:36;;;;;;;3.92;2.35;;;;;;;;;;5014881;28;20084;-86
2021/11/05 06:08:02;;;;;;;3.13;2.17;;;;;;;;;;5008616;28;20038;-92
2021/11/05 06:10:27;;;;;;;5.65;2.22;;;;;;;;;;5008943;28;20481;-80
2021/11/05 06:12:52;;;;;;;4.75;2.60;;;;;;;;;;5018551;28;20084;-80
2021/11/05 06:15:18;;;;;;;4.45;2.50;;;;;;;;;;5011694;28;20050;-92
2021/11/05 06:17:44;;;;;;;4.22;2.50;;;;;;;;;;5036586;28;20404;-92
2021/11/05 06:20:10;;;;;;;4.70;2.58;;;;;;;;;;5014018;28;20048;-80
2021/11/05 06:22:35;;;;;;;5.20;2.90;;;;;;;;;;5009171;28;20107;-91
2021/11/05 06:25:03;;;;;;;5.18;2.58;;;;;;;;;;5015891;28;20370;-80
2021/11/05 06:27:29;;;;;;;5.43;2.80;;;;;;;;;;5020207;28;20080;-85
2021/11/05 06:29:55;;;;;;;5.10;3.17;;;;;;;;;;5017820;28;20037;-91
2021/11/05 06:32:20;;;;;;;5.25;2.80;;;;;;;;;;5017976;28;20030;-86
2021/11/05 06:34:46;;;;;;;5.43;2.80;;;;;;;;;;5014934;28;20033;-91
2021/11/05 06:37:11;;;;;;;5.28;2.95;;;;;;;;;;5013074;28;20524;-80
2021/11/05 06:39:36;;;;;;;4.60;2.88;;;;;;;;;;5013852;28;20668;-79
2021/11/05 06:42:02;;;;;;;4.90;3.03;;;;;;;;;;5018857;28;20602;-90
2021/11/05 06:44:27;;;;;;;5.70;2.80;;;;;;;;;;5013338;28;20490;-79
2021/11/05 06:46:53;;;;;;;4.63;2.80;;;;;;;;;;5015640;28;20478;-79
2021/11/05 06:49:18;;;;;;;6.30;3.20;;;;;;;;;;5013481;28;20076;-84
2021/11/05 06:51:44;;;;;;;4.55;2.75;;;;;;;;;;4998747;28;20085;-79
2021/11/05 06:54:10;;;;;;;4.28;2.70;;;;;;;;;;5004016;28;20045;-89
2021/11/05 06:56:35;;;;;;;4.25;2.47;;;;;;;;;;5015679;28;20022;-91
2021/11/05 06:59:01;;;;;;;5.35;2.45;;;;;;;;;;5015037;28;20032;-84
2021/11/05 07:01:27;;;;;;;4.82;2.58;;;;;;;;;;4998241;28;20057;-84
2021/11/05 07:03:54;;;;;;;4.07;2.55;;;;;;;;;;5019544;28;20077;-82
2021/11/05 07:06:20;;;;;;;4.07;2.45;;;;;;;;;;5014568;28;20022;-91
2021/11/05 07:08:45;;;;;;;4.75;2.58;;;;;;;;;;5013289;28;20037;-91
2021/11/05 07:11:11;;;;;;;5.30;2.55;;;;;;;;;;5013384;28;20026;-91
2021/11/05 07:13:36;;;;;;;5.85;2.60;;;;;;;;;;5002896;28;20145;-87
2021/11/05 07:16:03;;;;;;;4.70;3.05;;;;;;;;;;5018380;28;20071;-79
2021/11/05 07:18:30;;;;;;;6.88;2.70;;;;;;;;;;5016266;28;20033;-79
2021/11/05 07:21:04;;;;;;;6.95;2.85;;;;;;;;;;5016755;28;20172;-79
2021/11/05 07:23:31;;;;;;;5.50;2.83;;;;;;;;;;5008989;28;20091;-79
2021/11/05 07:25:58;;;;;;;4.47;2.80;;;;;;;;;;5018766;28;20025;-80
2021/11/05 07:28:23;;;;;;;7.10;3.15;;;;;;;;;;5016903;28;20037;-81
2021/11/05 07:30:48;;;;;;;5.75;3.25;;;;;;;;;;5005641;28;20037;-84
2021/11/05 07:33:14;;;;;;;6.07;3.22;;;;;;;;;;5009766;28;20041;-89
2021/11/05 07:35:39;;;;;;;5.53;3.47;;;;;;;;;;5012840;28;20461;-79
2021/11/05 07:38:05;;;;;;;6.03;3.60;;;;;;;;;;5006594;28;20037;-80
2021/11/05 07:40:31;;;;;;;7.30;3.95;;;;;;;;;;5014317;28;20022;-84
2021/11/05 07:42:57;;;;;;;6.22;3.95;;;;;;;;;;5009224;28;20018;-90
2021/11/05 07:45:25;;;;;;;6.40;3.70;;;;;;;;;;5011401;28;20030;-91
2021/11/05 07:47:51;;;;;;;6.18;3.90;;;;;;;;;;5019010;28;20030;-80
2021/11/05 07:50:18;;;;;;;6.25;4.43;;;;;;;;;;5019750;28;20363;-81
2021/11/05 07:52:44;;;;;;;7.20;4.50;;;;;;;;;;5015709;28;20049;-91
2021/11/05 07:55:10;;;;;;;8.48;4.95;;;;;;;;;;4999990;28;20056;-91
2021/11/05 07:57:35;;;;;;;7.25;4.32;;;;;;;;;;5013922;28;20074;-80
2021/11/05 08:00:01;;;;;;;7.57;4.93;;;;;;;;;;5016097;28;20451;-79
2021/11/05 08:02:26;;;;;;;7.22;4.68;;;;;;;;;;5016392;28;20025;-91
2021/11/05 08:04:51;;;;;;;8.25;5.18;;;;;;;;;;5012169;28;20037;-80
2021/11/05 08:07:22;;;;;;;10.43;5.40;;;;;;;;;;5010997;28;20105;-79
2021/11/05 08:09:52;;;;;;;6.32;4.78;;;;;;;;;;5018017;28;20026;-82
2021/11/05 08:12:18;;;;;;;7.53;5.18;;;;;;;;;;5007558;28;20398;-80
2021/11/05 08:14:46;;;;;;;7.22;5.43;;;;;;;;;;5008477;28;20041;-81
2021/11/05 08:17:12;;;;;;;7.60;5.35;;;;;;;;;;5012038;28;20031;-79
2021/11/05 08:19:38;;;;;;;8.48;5.70;;;;;;;;;;5013276;28;20038;-79
2021/11/05 08:22:06;;;;;;;9.35;5.95;;;;;;;;;;5022313;28;20508;-92
2021/11/05 08:24:31;;;;;;;9.85;6.30;;;;;;;;;;5022528;28;20029;-86
2021/11/05 08:26:57;;;;;;;7.38;6.32;;;;;;;;;;5016269;28;20469;-81
2021/11/05 08:29:23;;;;;;;9.52;6.68;;;;;;;;;;5027185;28;20021;-91
2021/11/05 08:31:48;;;;;;;8.23;5.90;;;;;;;;;;5024316;28;20026;-81
2021/11/05 08:34:14;;;;;;;9.02;6.63;;;;;;;;;;5017660;28;20104;-92
2021/11/05 08:36:40;;;;;;;10.50;6.38;;;;;;;;;;5012344;28;20481;-87
2021/11/05 08:39:06;;;;;;;9.30;6.60;;;;;;;;;;5010494;28;20034;-81
2021/11/05 08:41:32;;;;;;;10.85;7.03;;;;;;;;;;5011332;28;20097;-91
2021/11/05 08:43:58;;;;;;;9.02;6.45;;;;;;;;;;5008542;28;20030;-87
2021/11/05 08:46:29;;;;;;;11.70;7.03;;;;;;;;;;5013422;28;20041;-80
2021/11/05 08:48:58;;;;;;;10.52;6.53;;;;;;;;;;5027541;28;20116;-87
2021/11/05 08:51:26;;;;;;;9.60;6.90;;;;;;;;;;5000739;28;20041;-81
2021/11/05 08:53:51;;;;;;;11.27;6.93;;;;;;;;;;5009409;28;20033;-81
2021/11/05 08:56:17;;;;;;;8.23;7.15;;;;;;;;;;5011720;28;20389;-81
2021/11/05 08:58:44;;;;;;;9.23;7.22;;;;;;;;;;5016416;28;20405;-81
2021/11/05 09:01:10;;;;;;;10.52;6.97;;;;;;;;;;5013092;28;20484;-81
2021/11/05 09:03:35;;;;;;;10.15;7.07;;;;;;;;;;5022286;28;20048;-82
2021/11/05 09:06:02;;;;;;;10.30;6.85;;;;;;;;;;5014856;28;20026;-91
2021/11/05 09:08:31;;;;;;;10.15;6.57;;;;;;;;;;5006884;28;20105;-82
2021/11/05 09:10:57;;;;;;;7.65;6.03;;;;;;;;;;5006811;28;20057;-80
2021/11/05 09:13:23;;;;;;;9.82;7.18;;;;;;;;;;5020087;28;20030;-89
2021/11/05 09:15:48;;;;;;;11.00;6.55;;;;;;;;;;5001199;28;20088;-81
2021/11/05 09:18:14;;;;;;;10.18;6.80;;;;;;;;;;5015627;28;20042;-81
2021/11/05 09:20:39;;;;;;;13.48;7.50;;;;;;;;;;5010719;28;20036;-82
2021/11/05 09:23:05;;;;;;;15.13;7.32;;;;;;;;;;5005568;28;20029;-81
2021/11/05 09:25:31;;;;;;;11.55;7.38;;;;;;;;;;5012983;28;20030;-83
2021/11/05 09:27:57;;;;;;;11.98;7.35;;;;;;;;;;5001872;28;20138;-90
2021/11/05 09:30:23;;;;;;;10.38;6.63;;;;;;;;;;5008390;28;20488;-90
2021/11/05 09:32:53;;;;;;;10.20;6.35;;;;;;;;;;5014594;28;20022;-83
2021/11/05 09:35:19;;;;;;;9.52;6.35;;;;;;;;;;5000672;28;20375;-88
2021/11/05 09:37:45;;;;;;;11.18;6.38;;;;;;;;;;5008963;28;20028;-81
2021/11/05 09:40:15;;;;;;;10.85;6.32;;;;;;;;;;5010915;28;20025;-80
2021/11/05 09:42:46;;;;;;;12.18;6.18;;;;;;;;;;5015077;28;20022;-80
2021/11/05 09:45:12;;;;;;;11.85;6.72;;;;;;;;;;5018382;28;20033;-87
2021/11/05 09:47:42;;;;;;;10.73;7.13;;;;;;;;;;5011929;28;20449;-83
2021/11/05 09:50:10;;;;;;;10.98;6.35;;;;;;;;;;5003471;28;20029;-88
2021/11/05 09:52:36;;;;;;;10.43;6.03;;;;;;;;;;5019681;28;20577;-85
2021/11/05 09:55:03;;;;;;;10.32;6.25;;;;;;;;;;5018032;28;20029;-89
2021/11/05 09:57:28;;;;;;;8.57;4.68;;;;;;;;;;5014649;28;20030;-81
2021/11/05 09:59:56;;;;;;;11.35;5.68;;;;;;;;;;5021354;28;20026;-90
2021/11/05 10:02:22;;;;;;;12.43;5.20;;;;;;;;;;5003193;28;20478;-88
2021/11/05 10:04:48;;;;;;;11.25;5.03;;;;;;;;;;5013932;28;20025;-80
2021/11/05 10:07:13;;;;;;;7.38;4.70;;;;;;;;;;5006359;28;20017;-87
2021/11/05 10:09:45;;;;;;;7.80;4.88;;;;;;;;;;5008781;28;20023;-87
2021/11/05 10:12:16;;;;;;;12.05;4.53;;;;;;;;;;5019510;28;20030;-88
2021/11/05 10:14:43;;;;;;;11.07;4.63;;;;;;;;;;5010109;28;20046;-89
2021/11/05 10:17:15;;;;;;;9.60;4.63;;;;;;;;;;5012291;28;20084;-82
2021/11/05 10:20:04;;;;;;;9.87;4.70;;;;;;;;;;5015349;28;20385;-81
2021/11/05 10:22:52;;;;;;;7.43;3.83;;;;;;;;;;5010475;28;20077;-88
2021/11/05 10:25:31;;;;;;;7.82;3.97;;;;;;;;;;5009990;28;20029;-83
2021/11/05 10:28:11;;;;;;;9.65;4.28;;;;;;;;;;5030339;28;20036;-82
2021/11/05 10:30:41;;;;;;;8.30;4.57;;;;;;;;;;5016514;28;20053;-88
2021/11/05 10:33:07;;;;;;;10.27;4.70;;;;;;;;;;5021183;28;20027;-88
2021/11/05 10:35:35;;;;;;;12.82;4.88;;;;;;;;;;5015491;28;20388;-82
2021/11/05 10:38:04;;;;;;;11.23;4.10;;;;;;;;;;5022550;28;20033;-88
2021/11/05 10:40:36;;;;;;;7.47;4.13;;;;;;;;;;5017856;28;20026;-81
2021/11/05 10:43:02;;;;;;;8.32;4.22;;;;;;;;;;5013929;28;20073;-89
2021/11/05 10:45:28;;;;;;;8.95;4.65;;;;;;;;;;5013050;28;20017;-89
2021/11/05 10:47:54;;;;;;;8.45;4.47;;;;;;;;;;5016785;28;20097;-81
2021/11/05 10:50:31;;;;;;;7.57;4.32;;;;;;;;;;5001319;28;20134;-88
2021/11/05 10:53:17;;;;;;;7.93;4.00;;;;;;;;;;5023445;28;20064;-89
2021/11/05 10:55:48;;;;;;;9.75;4.32;;;;;;;;;;5016122;28;20100;-89
2021/11/05 10:58:20;;;;;;;7.63;3.78;;;;;;;;;;5005844;28;20036;-80
2021/11/05 11:00:48;;;;;;;9.32;4.00;;;;;;;;;;5004712;28;20026;-85
2021/11/05 11:03:25;;;;;;;7.63;3.40;;;;;;;;;;5014222;28;20088;-87
2021/11/05 11:05:54;;;;;;;8.60;3.85;;;;;;;;;;5019322;28;20378;-83
2021/11/05 11:08:25;;;;;;;11.13;3.95;;;;;;;;;;5013386;28;20041;-82
2021/11/05 11:10:53;;;;;;;9.77;3.50;;;;;;;;;;5000910;28;20466;-88
2021/11/05 11:13:38;;;;;;;7.95;3.97;;;;;;;;;;5004837;28;20025;-89
2021/11/05 11:16:08;;;;;;;17.65;4.65;;;;;;;;;;5031165;28;20033;-88
2021/11/05 11:18:45;;;;;;;7.82;3.20;;;;;;;;;;5007832;28;20112;-87
2021/11/05 11:21:10;;;;;;;8.60;3.15;;;;;;;;;;5015332;28;20108;-81
2021/11/05 11:23:36;;;;;;;8.50;2.95;;;;;;;;;;5014821;28;20448;-83
2021/11/05 11:26:01;;;;;;;6.25;3.22;;;;;;;;;;5008440;28;20069;-89
2021/11/05 11:28:27;;;;;;;10.77;3.67;;;;;;;;;;5014994;28;20024;-83
2021/11/05 11:30:53;;;;;;;9.65;3.55;;;;;;;;;;5017005;28;20236;-81
2021/11/05 11:33:21;;;;;;;10.40;3.38;;;;;;;;;;5005335;28;20029;-82
2021/11/05 11:35:47;;;;;;;9.57;3.08;;;;;;;;;;5015143;28;20036;-88
2021/11/05 11:38:15;;;;;;;8.23;3.63;;;;;;;;;;5019532;28;20117;-88
2021/11/05 11:40:41;;;;;;;8.93;3.22;;;;;;;;;;5020606;28;20397;-88
2021/11/05 11:43:07;;;;;;;8.75;2.88;;;;;;;;;;5013848;28;20033;-90
2021/11/05 11:45:32;;;;;;;10.32;3.83;;;;;;;;;;5001069;28;20030;-87
2021/11/05 11:47:59;;;;;;;9.20;3.05;;;;;;;;;;5008234;28;20485;-81
2021/11/05 11:50:30;;;;;;;6.35;2.80;;;;;;;;;;5005192;28;20424;-82
2021/11/05 11:53:03;;;;;;;8.60;3.10;;;;;;;;;;5015234;28;20021;-88
2021/11/05 11:55:28;;;;;;;7.25;2.35;;;;;;;;;;5016782;28;20070;-87
2021/11/05 11:58:18;;;;;;;7.40;2.60;;;;;;;;;;5012309;28;20112;-82
2021/11/05 12:00:47;;;;;;;7.88;2.17;;;;;;;;;;5009873;28;20397;-90
2021/11/05 12:03:16;;;;;;;10.93;2.63;;;;;;;;;;5020143;28;20029;-82
2021/11/05 12:05:56;;;;;;;9.57;1.88;;;;;;;;;;5014368;28;20022;-90
2021/11/05 12:08:49;;;;;;;5.82;1.40;;;;;;;;;;5024690;28;20037;-80
2021/11/05 12:11:19;;;;;;;5.80;1.33;;;;;;;;;;5002408;28;20056;-80
2021/11/05 12:13:53;;;;;;;7.35;1.60;;;;;;;;;;5011246;28;20042;-89
2021/11/05 12:16:24;;;;;;;6.63;1.30;;;;;;;;;;5015564;28;20496;-88
2021/11/05 12:18:57;;;;;;;3.45;0.70;;;;;;;;;;5021630;28;20053;-88
2021/11/05 12:21:47;;;;;;;2.95;0.90;;;;;;;;;;5012825;28;20393;-83
2021/11/05 12:24:31;;;;;;;4.13;0.90;;;;;;;;;;5008937;28;20033;-82
2021/11/05 12:26:58;;;;;;;;;;;;;;;;;;4996837;28;20040;-90
2021/11/05 12:29:29;;;;;;;5.50;0.82;;;;;;;;;;5012469;28;20355;-88
2021/11/05 12:31:55;;;;;;;3.63;0.60;;;;;;;;;;5019119;28;20029;-82
2021/11/05 12:34:24;;;;;;;8.52;1.05;;;;;;;;;;5015343;28;20049;-82
2021/11/05 12:36:52;;;;;;;7.10;1.42;;;;;;;;;;5012791;28;20025;-82
2021/11/05 12:39:35;;;;;;;3.88;1.20;;;;;;;;;;5008938;28;20508;-89
2021/11/05 12:42:07;;;;;;;4.55;1.30;;;;;;;;;;5010520;28;20040;-89
2021/11/05 12:45:00;;;;;;;3.47;1.52;;;;;;;;;;5009042;28;20033;-81
2021/11/05 12:47:45;;;;;;;2.75;0.93;;;;;;;;;;5013939;28;20145;-90
2021/11/05 12:50:12;;;;;;;3.78;0.80;;;;;;;;;;5011894;28;20038;-91
2021/11/05 12:52:37;;;;;;;4.80;1.20;;;;;;;;;;5011069;28;20030;-83
2021/11/05 12:55:04;;;;;;;1.35;0.80;;;;;;;;;;5018538;28;20552;-92
2021/11/05 12:57:29;;;;;;;5.15;1.13;;;;;;;;;;5013823;28;20028;-89
2021/11/05 12:59:55;;;;;;;3.15;1.00;;;;;;;;;;5012571;28;20030;-83
2021/11/05 13:02:22;;;;;;;6.43;0.70;;;;;;;;;;5013189;28;20026;-80
2021/11/05 13:04:52;;;;;;;6.30;1.88;;;;;;;;;;5010901;28;20037;-89
2021/11/05 13:07:18;;;;;;;3.58;0.70;;;;;;;;;;5016294;28;20071;-80
2021/11/05 13:09:45;;;;;;;3.45;0.70;;;;;;;;;;5008780;28;20064;-81
2021/11/05 13:12:19;;;;;;;3.53;0.50;;;;;;;;;;5017471;28;20507;-90
2021/11/05 13:14:57;;;;;;;3.67;0.50;;;;;;;;;;5017625;28;20042;-88
2021/11/05 13:17:33;;;;;;;3.17;0.57;;;;;;;;;;5024935;28;20506;-89
2021/11/05 13:20:02;;;;;;;2.47;0.50;;;;;;;;;;5013869;28;20030;-83
2021/11/05 13:22:31;;;;;;;6.38;0.60;;;;;;;;;;5015409;28;20038;-90
2021/11/05 13:25:15;;;;;;;4.07;0.57;;;;;;;;;;5013513;28;20022;-89
2021/11/05 13:27:43;;;;;;;1.65;0.30;;;;;;;;;;5022141;28;20108;-89
2021/11/05 13:30:10;;;;;;;4.43;0.50;;;;;;;;;;5017444;28;20117;-80
2021/11/05 13:32:37;;;;;;;7.60;0.60;;;;;;;;;;5010536;28;20022;-90
2021/11/05 13:35:03;;;;;;;3.65;0.50;;;;;;;;;;5018330;28;20409;-81
2021/11/05 13:37:29;;;;;;;3.88;0.38;;;;;;;;;;5014966;28;20064;-90
2021/11/05 13:39:55;;;;;;;1.88;0.47;;;;;;;;;;5033138;28;20061;-83
2021/11/05 13:42:24;;;;;;;7.03;0.50;;;;;;;;;;5008735;28;20022;-88
2021/11/05 13:45:04;;;;;;;8.00;1.10;;;;;;;;;;5012410;28;20092;-89
2021/11/05 13:47:29;;;;;;;6.38;0.80;;;;;;;;;;5015498;28;20505;-88
2021/11/05 13:50:21;;;;;;;1.50;0.30;;;;;;;;;;5013938;28;20027;-81
2021/11/05 13:53:08;;;;;;;2.30;0.50;;;;;;;;;;5016301;28;20022;-88
2021/11/05 13:55:39;;;;;;;5.28;0.50;;;;;;;;;;5007479;28;20449;-91
2021/11/05 13:58:07;;;;;;;4.55;0.60;;;;;;;;;;5013061;28;20021;-81
2021/11/05 14:00:51;;;;;;;3.92;0.70;;;;;;;;;;5009264;28;20044;-83
2021/11/05 14:03:18;;;;;;;2.38;0.57;;;;;;;;;;5009600;28;20034;-87
2021/11/05 14:05:43;;;;;;;3.05;0.60;;;;;;;;;;5011196;28;20033;-81
2021/11/05 14:08:11;;;;;;;2.55;0.50;;;;;;;;;;5014778;28;20033;-88
2021/11/05 14:10:57;;;;;;;3.15;0.80;;;;;;;;;;5004188;28;20477;-90
2021/11/05 14:13:26;;;;;;;3.95;0.90;;;;;;;;;;5009696;28;20029;-89
2021/11/05 14:16:06;;;;;;;3.95;0.77;;;;;;;;;;5008616;28;20036;-80
2021/11/05 14:18:31;;;;;;;3.72;0.98;;;;;;;;;;5020533;28;20025;-81
2021/11/05 14:21:15;;;;;;;4.47;0.80;;;;;;;;;;5019788;28;20366;-88
2021/11/05 14:23:40;;;;;;;7.28;0.80;;;;;;;;;;5008125;28;20112;-82
2021/11/05 14:26:22;;;;;;;5.53;1.08;;;;;;;;;;5018311;28;20443;-82
2021/11/05 14:29:13;;;;;;;5.38;0.77;;;;;;;;;;5013831;28;20038;-81
2021/11/05 14:31:57;;;;;;;4.40;0.50;;;;;;;;;;5006273;28;20033;-88
2021/11/05 14:34:26;;;;;;;5.18;0.55;;;;;;;;;;5018515;28;20023;-91
2021/11/05 14:37:09;;;;;;;3.10;0.40;;;;;;;;;;5021045;28;20049;-83
2021/11/05 14:40:05;;;;;;;4.28;0.60;;;;;;;;;;5015738;28;20021;-81
2021/11/05 14:42:37;;;;;;;5.82;0.70;;;;;;;;;;4990331;28;20041;-88
2021/11/05 14:45:22;;;;;;;7.85;0.75;;;;;;;;;;5023540;28;20022;-83